Airfield :
LOGIN :

Register | Disclaimer

   EN    FR    IT 

 










Legend :    VFR   Marginal VFR   IFR   Intensive IFR   Very Intensive IFR
Visi :
Ceiling :
>= 8 km
>= 3000ft
5 to 8 km
1000 to 3000 ft
1500m to 5 km
500 to 1000 ft
800 to 1500m
200 to 500 ft
< 800m
< 200 ft
Symbols :   Thunderstorms  Fog  Heavy snow  Heavy precipitations  Wind > 20 kt
SIGMETs :     Misc.  Thunderstorms  Icing  Turbulence  Mountain Waves  Volcanic Ashes







- Airport Elevation : 274 ft
- IATA code : PUY


LDPL - Pula

CURRENT METAR :
  • 170000Z 07004KT CAVOK 15/11 Q1019

EXPIRED METARs :
  • 162330Z 07004KT 9999 FEW058 16/11 Q1020
  • 162300Z 06004KT 9999 FEW058 17/11 Q1020
  • 162230Z 06004KT 9999 FEW058 17/11 Q1020
  • 162200Z 05003KT 9999 SCT058 17/11 Q1020
  • 162130Z 06003KT 9999 FEW058 16/11 Q1020 NOSIG

TAF TAF LDPL
Valid from the 17 at 00:00 until the 18 at 00:00 UTC


162325Z 1700/1800 06005KT 9999 SCT045 TX20/1713Z TN15/1704Z
TEMPO 1709/1716 07008KT
PROB30
TEMPO 1712/1719 SHRA FEW030TCU BKN040
No reported NOTAMs for that airfield.



MET'MAP, your aeronautical weather chart ! - Copyright ORBIFLY December 2007 - Disclaimer

ORBIFLY MET'MAP TEAM :

Programming & Development : Alexandra Zaïnal
Concept & Development : Baudouin d'Aumeries
Co-Development & Prog : Marc-Olivier Méhu
Technical & hardware support : Manuel Goepfert

Contact : metmap@orbifly.com




SOURCES & CREDITS :

   NOAA